createdAt,value
2019-02-09T00:01:56.902Z,2.60
2019-02-09T00:04:26.817Z,2.55
2019-02-09T00:06:56.743Z,5.78
2019-02-09T00:09:27.036Z,2.77
2019-02-09T00:11:57.270Z,2.70
2019-02-09T00:14:27.166Z,2.55
2019-02-09T00:16:57.260Z,2.62
2019-02-09T00:19:27.158Z,3.70
2019-02-09T00:21:56.880Z,1.80
2019-02-09T00:24:26.758Z,3.30
2019-02-09T00:26:56.143Z,3.37
2019-02-09T00:29:25.957Z,2.42
2019-02-09T00:31:55.087Z,2.85
2019-02-09T00:34:25.613Z,4.33
2019-02-09T00:36:55.719Z,2.90
2019-02-09T00:39:25.576Z,3.45
2019-02-09T00:41:55.424Z,2.52
2019-02-09T00:44:25.408Z,2.85
2019-02-09T00:46:55.447Z,2.30
2019-02-09T00:49:25.508Z,3.92
2019-02-09T00:51:56.050Z,4.60
2019-02-09T00:54:25.604Z,3.15
2019-02-09T00:56:55.324Z,3.47
2019-02-09T00:59:25.438Z,4.62
2019-02-09T01:01:56.631Z,3.60
2019-02-09T01:04:26.804Z,5.03
2019-02-09T01:06:56.875Z,3.70
2019-02-09T01:09:27.314Z,2.02
2019-02-09T01:11:57.457Z,2.45
2019-02-09T01:14:27.584Z,3.47
2019-02-09T01:16:57.787Z,2.05
2019-02-09T01:19:27.910Z,2.75
2019-02-09T01:21:57.633Z,3.92
2019-02-09T01:24:28.148Z,3.72
2019-02-09T01:26:58.340Z,3.62
2019-02-09T01:29:28.121Z,3.60
2019-02-09T01:31:57.968Z,4.03
2019-02-09T01:34:28.538Z,3.55
2019-02-09T01:36:58.666Z,2.27
2019-02-09T01:39:28.466Z,3.83
2019-02-09T01:41:58.520Z,3.52
2019-02-09T01:44:27.627Z,5.25
2019-02-09T01:46:57.695Z,3.65
2019-02-09T01:49:27.887Z,2.85
2019-02-09T01:51:57.100Z,3.77
2019-02-09T01:54:27.334Z,4.35
2019-02-09T01:56:57.465Z,4.45
2019-02-09T01:59:27.287Z,2.50
2019-02-09T02:01:57.744Z,5.72
2019-02-09T02:04:27.204Z,4.70
2019-02-09T02:06:57.701Z,4.78
2019-02-09T02:09:27.552Z,4.20
2019-02-09T02:11:58.042Z,3.20
2019-02-09T02:14:28.203Z,3.58
2019-02-09T02:17:09.175Z,2.50
2019-02-09T02:19:38.635Z,3.22
2019-02-09T02:22:08.763Z,3.22
2019-02-09T02:24:38.597Z,3.30
2019-02-09T02:27:08.715Z,4.47
2019-02-09T02:29:38.456Z,3.75
2019-02-09T02:32:08.318Z,4.37
2019-02-09T02:34:38.076Z,3.55
2019-02-09T02:37:07.869Z,4.42
2019-02-09T02:39:38.000Z,3.47
2019-02-09T02:42:07.405Z,3.55
2019-02-09T02:44:37.209Z,3.52
2019-02-09T02:47:07.703Z,4.08
2019-02-09T02:49:37.923Z,5.55
2019-02-09T02:52:08.717Z,4.22
2019-02-09T02:54:38.720Z,3.92
2019-02-09T02:57:09.065Z,4.28
2019-02-09T02:59:38.926Z,5.37
2019-02-09T03:02:08.652Z,7.85
2019-02-09T03:04:38.774Z,6.50
2019-02-09T03:07:08.590Z,6.80
2019-02-09T03:09:38.618Z,5.95
2019-02-09T03:12:08.766Z,7.45
2019-02-09T03:14:38.590Z,4.30
2019-02-09T03:17:08.839Z,7.20
2019-02-09T03:19:38.604Z,5.58
2019-02-09T03:22:08.539Z,5.33
2019-02-09T03:24:38.707Z,4.10
2019-02-09T03:27:08.587Z,4.35
2019-02-09T03:29:37.982Z,6.22
2019-02-09T03:32:10.753Z,7.90
2019-02-09T03:34:39.498Z,3.87
2019-02-09T03:37:09.623Z,3.92
2019-02-09T03:39:40.060Z,5.67
2019-02-09T03:42:09.879Z,4.60
2019-02-09T03:44:39.343Z,5.72
2019-02-09T03:47:09.157Z,3.37
2019-02-09T03:49:38.590Z,4.30
2019-02-09T03:52:09.009Z,3.55
2019-02-09T03:54:39.523Z,5.80
2019-02-09T03:57:09.334Z,3.20
2019-02-09T03:59:39.412Z,5.35
2019-02-09T04:02:09.487Z,2.80
2019-02-09T04:04:38.992Z,5.55
2019-02-09T04:07:09.192Z,4.87
2019-02-09T04:09:38.974Z,3.00
2019-02-09T04:12:08.879Z,3.50
2019-02-09T04:14:38.825Z,4.42
2019-02-09T04:17:08.660Z,1.52
2019-02-09T04:19:38.436Z,2.10
2019-02-09T04:22:08.689Z,3.17
2019-02-09T04:24:38.393Z,3.33
2019-02-09T04:27:09.082Z,4.60
2019-02-09T04:29:38.848Z,2.20
2019-02-09T04:32:08.655Z,2.55
2019-02-09T04:34:38.467Z,3.55
2019-02-09T04:37:08.166Z,2.60
2019-02-09T04:39:37.629Z,2.75
2019-02-09T04:42:07.766Z,3.17
2019-02-09T04:44:37.620Z,3.05
2019-02-09T04:47:07.744Z,1.70
2019-02-09T04:49:38.180Z,2.67
2019-02-09T04:52:08.070Z,1.45
2019-02-09T04:54:37.878Z,2.55
2019-02-09T04:57:07.937Z,2.22
2019-02-09T04:59:38.120Z,2.62
2019-02-09T05:02:08.142Z,2.42
2019-02-09T05:04:38.700Z,2.42
2019-02-09T05:07:08.756Z,1.15
2019-02-09T05:09:38.866Z,1.55
2019-02-09T05:12:08.739Z,1.10
2019-02-09T05:14:38.182Z,2.15
2019-02-09T05:17:07.725Z,1.25
2019-02-09T05:19:37.907Z,1.27
2019-02-09T05:22:08.069Z,0.90
2019-02-09T05:24:38.115Z,0.93
2019-02-09T05:27:08.519Z,1.72
2019-02-09T05:29:37.922Z,2.05
2019-02-09T05:32:08.576Z,1.45
2019-02-09T05:34:38.278Z,1.45
2019-02-09T05:37:08.086Z,2.08
2019-02-09T05:39:38.626Z,3.45
2019-02-09T05:42:09.365Z,1.02
2019-02-09T05:44:39.609Z,1.52
2019-02-09T05:47:10.283Z,3.83
2019-02-09T05:49:40.909Z,2.80
2019-02-09T05:52:11.151Z,2.25
2019-02-09T05:54:41.326Z,1.52
2019-02-09T05:57:11.579Z,1.37
2019-02-09T06:00:00.545Z,1.75
2019-02-09T06:02:30.379Z,1.47
2019-02-09T06:05:00.825Z,1.67
2019-02-09T06:07:30.697Z,3.02
2019-02-09T06:10:00.941Z,1.47
2019-02-09T06:12:30.647Z,2.40
2019-02-09T06:15:00.452Z,2.90
2019-02-09T06:17:30.671Z,2.30
2019-02-09T06:20:00.895Z,1.10
2019-02-09T06:22:31.371Z,2.37
2019-02-09T06:25:01.881Z,2.72
2019-02-09T06:27:32.402Z,1.35
2019-02-09T06:30:02.926Z,1.98
2019-02-09T06:32:33.170Z,1.22
2019-02-09T06:35:02.673Z,2.00
2019-02-09T06:37:32.811Z,2.15
2019-02-09T06:40:02.919Z,1.67
2019-02-09T06:42:32.989Z,1.85
2019-02-09T06:45:02.889Z,2.45
2019-02-09T06:47:33.079Z,3.33
2019-02-09T06:50:03.236Z,4.03
2019-02-09T06:52:32.970Z,3.12
2019-02-09T06:55:02.105Z,4.75
2019-02-09T06:57:32.660Z,2.83
2019-02-09T07:00:03.130Z,2.17
2019-02-09T07:02:33.244Z,1.60
2019-02-09T07:05:03.491Z,3.47
2019-02-09T07:07:33.972Z,4.80
2019-02-09T07:10:04.139Z,3.83
2019-02-09T07:12:34.227Z,3.92
2019-02-09T07:15:04.417Z,2.92
2019-02-09T07:17:34.811Z,7.53
2019-02-09T07:20:04.690Z,2.87
2019-02-09T07:22:34.482Z,5.47
2019-02-09T07:25:05.147Z,3.12
2019-02-09T07:27:35.538Z,3.60
2019-02-09T07:30:06.214Z,1.87
2019-02-09T07:32:36.699Z,3.55
2019-02-09T07:35:06.841Z,2.62
2019-02-09T07:37:37.370Z,2.40
2019-02-09T07:40:08.170Z,5.12
2019-02-09T07:42:38.115Z,3.83
2019-02-09T07:45:09.643Z,5.12
2019-02-09T07:47:40.094Z,3.70
2019-02-09T07:50:11.014Z,3.75
2019-02-09T07:52:41.417Z,3.47
2019-02-09T07:55:12.575Z,3.52
2019-02-09T07:57:42.746Z,5.47
2019-02-09T08:00:18.695Z,6.60
2019-02-09T08:02:48.454Z,2.65
2019-02-09T08:05:18.288Z,3.55
2019-02-09T08:07:48.758Z,3.65
2019-02-09T08:10:20.662Z,3.85
2019-02-09T08:12:51.224Z,7.40
2019-02-09T08:15:23.079Z,7.00
2019-02-09T08:17:53.498Z,5.60
2019-02-09T08:20:24.563Z,8.05
2019-02-09T08:22:56.036Z,5.95
2019-02-09T08:25:27.188Z,5.03
2019-02-09T08:27:57.402Z,4.40
2019-02-09T08:30:29.953Z,3.08
2019-02-09T08:33:00.055Z,8.80
2019-02-09T08:35:30.018Z,4.25
2019-02-09T08:37:59.898Z,5.28
2019-02-09T08:40:29.691Z,4.87
2019-02-09T08:42:59.923Z,5.83
2019-02-09T08:45:30.260Z,6.35
2019-02-09T08:48:00.475Z,6.42
2019-02-09T08:50:38.459Z,6.17
2019-02-09T08:53:08.677Z,7.10
2019-02-09T08:55:38.404Z,5.47
2019-02-09T08:58:08.342Z,4.03
2019-02-09T09:00:37.935Z,4.30
2019-02-09T09:03:07.865Z,5.15
2019-02-09T09:05:38.105Z,3.77
2019-02-09T09:08:08.172Z,5.60
2019-02-09T09:10:38.060Z,3.33
2019-02-09T09:13:07.919Z,4.42
2019-02-09T09:15:45.669Z,6.55
2019-02-09T09:18:15.528Z,4.83
2019-02-09T09:20:48.826Z,1.65
2019-02-09T09:23:18.316Z,2.95
2019-02-09T09:25:48.898Z,2.87
2019-02-09T09:28:19.418Z,1.25
2019-02-09T09:30:49.388Z,2.40
2019-02-09T09:33:19.559Z,2.42
2019-02-09T09:35:49.953Z,3.35
2019-02-09T09:38:20.183Z,1.42
2019-02-09T09:40:49.985Z,2.75
2019-02-09T09:43:19.891Z,3.20
2019-02-09T09:45:50.756Z,2.70
2019-02-09T09:48:21.694Z,3.17
2019-02-09T09:50:51.978Z,2.60
2019-02-09T09:53:22.227Z,3.87
2019-02-09T09:55:52.847Z,3.08
2019-02-09T09:58:22.775Z,3.42
2019-02-09T10:00:53.103Z,2.65
2019-02-09T10:03:22.672Z,2.65
2019-02-09T10:05:52.134Z,4.08
2019-02-09T10:08:26.064Z,2.45
2019-02-09T10:10:56.255Z,3.90
2019-02-09T10:13:26.566Z,4.62
2019-02-09T10:15:56.654Z,3.30
2019-02-09T10:18:26.820Z,4.37
2019-02-09T10:20:57.438Z,2.37
2019-02-09T10:23:27.718Z,3.00
2019-02-09T10:25:57.175Z,3.60
2019-02-09T10:28:27.370Z,4.20
2019-02-09T10:31:15.994Z,5.05
2019-02-09T10:33:46.495Z,4.75
2019-02-09T10:36:16.663Z,4.25
2019-02-09T10:38:47.383Z,4.35
2019-02-09T10:41:17.896Z,4.47
2019-02-09T10:43:48.416Z,3.30
2019-02-09T10:46:18.774Z,3.60
2019-02-09T10:48:49.003Z,4.53
2019-02-09T10:51:18.964Z,8.75
2019-02-09T10:53:49.156Z,8.95
2019-02-09T10:56:19.398Z,8.55
2019-02-09T10:59:08.680Z,6.95
2019-02-09T11:01:38.908Z,7.50
2019-02-09T11:04:08.379Z,4.03
2019-02-09T11:06:38.665Z,7.20
2019-02-09T11:09:14.823Z,4.12
2019-02-09T11:11:45.115Z,6.47
2019-02-09T11:14:14.249Z,6.15
2019-02-09T11:16:44.497Z,5.87
2019-02-09T11:19:13.982Z,5.17
2019-02-09T11:21:44.686Z,5.17
2019-02-09T11:24:15.732Z,5.15
2019-02-09T11:26:46.175Z,7.30
2019-02-09T11:29:16.602Z,6.85
2019-02-09T11:31:46.619Z,3.33
2019-02-09T11:34:16.146Z,9.55
2019-02-09T11:36:46.259Z,5.60
2019-02-09T11:39:16.468Z,7.05
2019-02-09T11:41:46.328Z,6.92
2019-02-09T11:44:16.438Z,5.65
2019-02-09T11:46:47.651Z,8.23
2019-02-09T11:49:17.182Z,5.78
2019-02-09T11:51:47.100Z,4.08
2019-02-09T11:54:17.329Z,5.95
2019-02-09T11:56:47.637Z,3.87
2019-02-09T11:59:17.518Z,5.60
2019-02-09T12:01:47.772Z,4.72
2019-02-09T12:04:17.574Z,7.28
2019-02-09T12:06:48.029Z,7.92
2019-02-09T12:09:18.271Z,6.33
2019-02-09T12:11:48.447Z,7.10
2019-02-09T12:14:18.614Z,8.20
2019-02-09T12:16:48.988Z,6.60
2019-02-09T12:19:19.675Z,9.03
2019-02-09T12:21:52.806Z,7.83
2019-02-09T12:24:23.209Z,3.80
2019-02-09T12:26:53.416Z,6.12
2019-02-09T12:29:23.564Z,5.72
2019-02-09T12:31:53.521Z,5.50
2019-02-09T12:34:23.835Z,6.92
2019-02-09T12:36:53.910Z,11.53
2019-02-09T12:39:34.449Z,8.50
2019-02-09T12:42:04.012Z,5.90
2019-02-09T12:44:34.255Z,6.10
2019-02-09T12:47:04.531Z,5.60
2019-02-09T12:49:34.787Z,7.10
2019-02-09T12:52:04.804Z,6.33
2019-02-09T12:54:35.515Z,5.17
2019-02-09T12:57:05.837Z,5.20
2019-02-09T12:59:35.873Z,6.10
2019-02-09T13:02:06.051Z,4.53
2019-02-09T13:04:35.885Z,8.43
2019-02-09T13:07:05.688Z,7.50
2019-02-09T13:09:35.838Z,6.83
2019-02-09T13:12:06.523Z,8.15
2019-02-09T13:14:36.805Z,6.45
2019-02-09T13:17:07.101Z,7.37
2019-02-09T13:19:37.137Z,5.22
2019-02-09T13:22:06.936Z,8.80
2019-02-09T13:24:36.853Z,6.42
2019-02-09T13:27:07.740Z,12.15
2019-02-09T13:29:36.931Z,11.83
2019-02-09T13:32:07.487Z,7.15
2019-02-09T13:34:37.696Z,8.30
2019-02-09T13:37:07.178Z,7.60
2019-02-09T13:39:37.143Z,9.90
2019-02-09T13:42:07.497Z,9.18
2019-02-09T13:44:37.413Z,8.50
2019-02-09T13:47:07.303Z,3.85
2019-02-09T13:49:37.783Z,2.92
2019-02-09T13:52:08.427Z,4.97
2019-02-09T13:54:38.791Z,5.28
2019-02-09T13:57:08.859Z,7.17
2019-02-09T13:59:39.087Z,4.45
2019-02-09T14:02:12.382Z,5.62
2019-02-09T14:04:42.324Z,9.53
2019-02-09T14:07:12.431Z,4.80
2019-02-09T14:09:41.570Z,7.35
2019-02-09T14:12:12.033Z,5.97
2019-02-09T14:14:42.525Z,6.08
2019-02-09T14:17:13.110Z,3.83
2019-02-09T14:19:43.044Z,5.08
2019-02-09T14:22:52.993Z,3.70
2019-02-09T14:25:42.299Z,4.78
2019-02-09T14:28:13.116Z,6.47
2019-02-09T14:30:43.031Z,4.25
2019-02-09T14:33:17.282Z,4.03
2019-02-09T14:35:55.936Z,3.75
2019-02-09T14:38:27.258Z,4.42
2019-02-09T14:40:57.753Z,4.90
2019-02-09T14:43:28.784Z,5.83
2019-02-09T14:45:58.690Z,3.85
2019-02-09T14:48:29.204Z,4.70
2019-02-09T14:51:02.065Z,4.67
2019-02-09T14:53:32.220Z,6.42
2019-02-09T14:56:01.696Z,7.92
2019-02-09T14:58:32.189Z,6.28
2019-02-09T15:01:02.278Z,9.05
2019-02-09T15:03:32.390Z,10.38
2019-02-09T15:06:02.586Z,9.38
2019-02-09T15:08:32.758Z,9.20
2019-02-09T15:11:03.171Z,5.83
2019-02-09T15:13:32.965Z,13.55
2019-02-09T15:16:26.930Z,6.58
2019-02-09T15:18:56.760Z,8.53
2019-02-09T15:21:26.295Z,5.03
2019-02-09T15:23:56.493Z,7.45
2019-02-09T15:26:26.587Z,7.53
2019-02-09T15:28:56.816Z,10.43
2019-02-09T15:31:26.706Z,8.50
2019-02-09T15:33:56.180Z,10.25
2019-02-09T15:36:25.657Z,7.10
2019-02-09T15:38:55.756Z,10.55
2019-02-09T15:41:25.682Z,5.92
2019-02-09T15:43:55.551Z,8.85
2019-02-09T15:46:25.476Z,7.42
2019-02-09T15:48:56.030Z,8.23
2019-02-09T15:51:26.356Z,10.05
2019-02-09T15:53:56.242Z,8.90
2019-02-09T15:56:26.412Z,6.65
2019-02-09T15:58:56.288Z,6.67
2019-02-09T16:01:26.871Z,6.30
2019-02-09T16:03:57.523Z,6.40
2019-02-09T16:06:28.017Z,5.72
2019-02-09T16:08:58.256Z,11.25
2019-02-09T16:11:28.576Z,10.05
2019-02-09T16:13:58.471Z,4.55
2019-02-09T16:16:28.288Z,12.13
2019-02-09T16:18:58.069Z,9.73
2019-02-09T16:21:28.453Z,12.90
2019-02-09T16:23:58.107Z,10.50
2019-02-09T16:26:28.734Z,11.78
2019-02-09T16:28:58.499Z,6.40
2019-02-09T16:31:28.735Z,6.62
2019-02-09T16:33:58.641Z,12.82
2019-02-09T16:36:28.923Z,9.88
2019-02-09T16:38:59.034Z,7.03
2019-02-09T16:41:29.479Z,7.33
2019-02-09T16:43:59.037Z,12.65
2019-02-09T16:46:29.273Z,6.45
2019-02-09T16:48:59.227Z,8.05
2019-02-09T16:51:28.766Z,8.38
2019-02-09T16:53:59.068Z,12.13
2019-02-09T16:56:29.376Z,8.15
2019-02-09T16:58:59.029Z,5.55
2019-02-09T17:01:29.623Z,7.05
2019-02-09T17:03:59.580Z,4.65
2019-02-09T17:06:29.436Z,7.90
2019-02-09T17:08:59.627Z,9.23
2019-02-09T17:11:29.216Z,6.72
2019-02-09T17:13:59.430Z,8.65
2019-02-09T17:16:30.053Z,7.70
2019-02-09T17:18:59.933Z,8.85
2019-02-09T17:21:29.748Z,11.08
2019-02-09T17:23:59.650Z,8.38
2019-02-09T17:26:30.230Z,8.60
2019-02-09T17:28:59.873Z,6.72
2019-02-09T17:31:29.532Z,6.58
2019-02-09T17:33:58.746Z,10.35
2019-02-09T17:36:28.933Z,6.05
2019-02-09T17:38:58.804Z,13.08
2019-02-09T17:41:28.885Z,5.72
2019-02-09T17:43:58.884Z,7.83
2019-02-09T17:46:29.009Z,12.85
2019-02-09T17:48:59.218Z,6.35
2019-02-09T17:51:28.994Z,4.83
2019-02-09T17:53:59.286Z,8.50
2019-02-09T17:56:29.812Z,8.75
2019-02-09T17:58:59.781Z,6.95
2019-02-09T18:01:30.189Z,8.85
2019-02-09T18:04:00.286Z,8.93
2019-02-09T18:06:30.663Z,7.58
2019-02-09T18:09:00.498Z,9.73
2019-02-09T18:11:30.726Z,6.83
2019-02-09T18:14:00.824Z,8.73
2019-02-09T18:16:30.743Z,12.73
2019-02-09T18:18:59.862Z,9.55
2019-02-09T18:21:30.159Z,6.95
2019-02-09T18:24:00.608Z,9.35
2019-02-09T18:26:30.591Z,9.45
2019-02-09T18:29:00.800Z,11.12
2019-02-09T18:31:31.109Z,10.82
2019-02-09T18:34:01.479Z,9.83
2019-02-09T18:36:32.087Z,9.40
2019-02-09T18:39:01.858Z,10.88
2019-02-09T18:41:31.358Z,8.83
2019-02-09T18:44:01.688Z,10.38
2019-02-09T18:46:31.234Z,8.75
2019-02-09T18:49:01.354Z,11.22
2019-02-09T18:51:30.858Z,8.80
2019-02-09T18:54:00.676Z,7.20
2019-02-09T18:56:30.925Z,9.75
2019-02-09T18:59:01.225Z,10.25
2019-02-09T19:01:31.778Z,5.42
2019-02-09T19:04:02.115Z,6.30
2019-02-09T19:06:31.999Z,8.83
2019-02-09T19:09:01.779Z,12.50
2019-02-09T19:11:31.646Z,6.60
2019-02-09T19:14:01.725Z,9.20
2019-02-09T19:16:32.234Z,14.35
2019-02-09T19:19:02.135Z,7.12
2019-02-09T19:21:32.743Z,8.40
2019-02-09T19:24:03.170Z,7.78
2019-02-09T19:26:33.426Z,7.22
2019-02-09T19:29:03.742Z,7.37
2019-02-09T19:31:34.297Z,9.25
2019-02-09T19:34:04.531Z,9.13
2019-02-09T19:36:34.591Z,7.28
2019-02-09T19:39:06.793Z,8.28
2019-02-09T19:41:36.606Z,10.00
2019-02-09T19:44:06.841Z,8.43
2019-02-09T19:46:37.481Z,7.80
2019-02-09T19:49:08.104Z,7.90
2019-02-09T19:51:37.641Z,12.28
2019-02-09T19:54:07.880Z,8.70
2019-02-09T19:56:38.176Z,9.53
2019-02-09T19:59:08.191Z,9.08
2019-02-09T20:01:38.300Z,9.05
2019-02-09T20:04:08.143Z,12.60
2019-02-09T20:06:38.567Z,12.03
2019-02-09T20:09:09.850Z,9.50
2019-02-09T20:11:40.123Z,5.45
2019-02-09T20:14:09.771Z,8.93
2019-02-09T20:16:39.748Z,12.40
2019-02-09T20:19:09.242Z,10.85
2019-02-09T20:21:38.818Z,11.78
2019-02-09T20:24:09.080Z,12.35
2019-02-09T20:26:39.605Z,10.25
2019-02-09T20:29:09.740Z,14.47
2019-02-09T20:31:40.181Z,10.68
2019-02-09T20:34:10.534Z,6.87
2019-02-09T20:36:40.111Z,9.90
2019-02-09T20:39:10.194Z,9.68
2019-02-09T20:41:40.114Z,11.00
2019-02-09T20:44:10.040Z,8.98
2019-02-09T20:46:40.609Z,10.78
2019-02-09T20:49:10.163Z,12.80
2019-02-09T20:51:40.355Z,40.40
2019-02-09T20:54:10.214Z,9.60
2019-02-09T20:56:40.196Z,9.35
2019-02-09T20:59:10.137Z,11.00
2019-02-09T21:01:40.055Z,9.28
2019-02-09T21:04:10.530Z,13.35
2019-02-09T21:06:40.797Z,19.80
2019-02-09T21:09:10.719Z,12.33
2019-02-09T21:11:40.926Z,12.60
2019-02-09T21:14:10.516Z,11.70
2019-02-09T21:16:40.665Z,12.07
2019-02-09T21:19:10.155Z,11.70
2019-02-09T21:21:40.628Z,10.35
2019-02-09T21:24:10.156Z,14.68
2019-02-09T21:26:40.728Z,10.95
2019-02-09T21:29:09.952Z,8.78
2019-02-09T21:31:40.403Z,11.97
2019-02-09T21:34:09.874Z,10.15
2019-02-09T21:36:39.754Z,10.13
2019-02-09T21:39:11.085Z,9.50
2019-02-09T21:41:41.069Z,16.87
2019-02-09T21:44:11.968Z,9.98
2019-02-09T21:46:41.789Z,9.85
2019-02-09T21:49:11.770Z,11.30
2019-02-09T21:51:41.911Z,9.28
2019-02-09T21:54:11.036Z,13.13
2019-02-09T21:56:40.928Z,18.77
2019-02-09T21:59:11.378Z,22.15
2019-02-09T22:01:41.280Z,14.00
2019-02-09T22:04:11.098Z,12.37
2019-02-09T22:06:41.286Z,16.73
2019-02-09T22:09:11.872Z,10.55
2019-02-09T22:11:41.608Z,13.30
2019-02-09T22:14:12.219Z,15.23
2019-02-09T22:16:42.393Z,7.58
2019-02-09T22:19:12.209Z,14.05
2019-02-09T22:21:42.841Z,10.15
2019-02-09T22:24:13.616Z,10.15
2019-02-09T22:26:43.239Z,6.40
2019-02-09T22:29:32.596Z,14.73
2019-02-09T22:32:02.745Z,14.20
2019-02-09T22:34:32.181Z,14.43
2019-02-09T22:37:02.759Z,12.68
2019-02-09T22:39:32.620Z,26.77
2019-02-09T22:42:02.863Z,40.00
2019-02-09T22:44:33.144Z,11.33
2019-02-09T22:47:02.975Z,15.65
2019-02-09T22:49:33.118Z,8.35
2019-02-09T22:52:03.324Z,23.32
2019-02-09T22:54:33.245Z,24.77
2019-02-09T22:57:03.465Z,7.40
2019-02-09T22:59:33.254Z,11.95
2019-02-09T23:02:04.103Z,9.43
2019-02-09T23:05:11.287Z,21.42
2019-02-09T23:07:42.757Z,15.90
2019-02-09T23:10:16.178Z,10.53
2019-02-09T23:12:48.681Z,32.42
2019-02-09T23:15:18.219Z,9.78
2019-02-09T23:17:48.142Z,7.15
2019-02-09T23:20:18.004Z,23.20
2019-02-09T23:22:47.529Z,7.55
2019-02-09T23:25:17.759Z,8.20
2019-02-09T23:27:48.202Z,5.65
2019-02-09T23:30:18.214Z,6.60
2019-02-09T23:32:48.385Z,8.18
2019-02-09T23:35:18.857Z,10.88
2019-02-09T23:37:49.023Z,5.95
2019-02-09T23:40:18.536Z,6.22
2019-02-09T23:42:49.156Z,5.45
2019-02-09T23:45:19.397Z,8.88
2019-02-09T23:47:49.343Z,5.95
2019-02-09T23:50:19.557Z,5.33
2019-02-09T23:52:49.463Z,10.93
2019-02-09T23:55:19.223Z,8.85
2019-02-09T23:57:49.392Z,10.82
